createdAt,value
2017-10-04T00:01:11.818Z,4.97
2017-10-04T00:03:39.402Z,4.10
2017-10-04T00:06:06.997Z,5.73
2017-10-04T00:08:35.718Z,3.80
2017-10-04T00:11:03.319Z,4.40
2017-10-04T00:13:30.902Z,4.53
2017-10-04T00:15:59.271Z,3.87
2017-10-04T00:18:27.619Z,4.00
2017-10-04T00:20:55.191Z,5.00
2017-10-04T00:23:22.786Z,5.10
2017-10-04T00:25:51.130Z,4.40
2017-10-04T00:28:19.063Z,3.80
2017-10-04T00:30:46.620Z,4.60
2017-10-04T00:33:14.219Z,4.20
2017-10-04T00:35:41.793Z,6.00
2017-10-04T00:38:09.382Z,4.10
2017-10-04T00:40:37.826Z,4.20
2017-10-04T00:43:05.383Z,3.97
2017-10-04T00:45:32.975Z,4.50
2017-10-04T00:48:01.504Z,4.10
2017-10-04T00:50:29.112Z,4.00
2017-10-04T00:52:57.022Z,4.17
2017-10-04T00:55:24.598Z,4.20
2017-10-04T00:57:52.146Z,3.90
2017-10-04T01:00:19.716Z,4.20
2017-10-04T01:02:47.673Z,4.50
2017-10-04T01:05:15.238Z,4.50
2017-10-04T01:07:42.838Z,4.20
2017-10-04T01:10:10.414Z,3.60
2017-10-04T01:12:38.962Z,3.87
2017-10-04T01:15:06.515Z,3.87
2017-10-04T01:17:34.094Z,4.03
2017-10-04T01:20:01.668Z,4.47
2017-10-04T01:22:29.243Z,4.50
2017-10-04T01:24:57.579Z,4.50
2017-10-04T01:27:25.158Z,3.90
2017-10-04T01:29:52.803Z,4.67
2017-10-04T01:32:20.358Z,3.83
2017-10-04T01:34:48.316Z,4.60
2017-10-04T01:37:15.893Z,4.40
2017-10-04T01:39:43.470Z,5.37
2017-10-04T01:42:11.076Z,4.20
2017-10-04T01:44:38.759Z,4.40
2017-10-04T01:47:06.310Z,4.00
2017-10-04T01:49:33.874Z,4.37
2017-10-04T01:52:01.455Z,4.40
2017-10-04T01:54:29.025Z,3.77
2017-10-04T01:56:56.631Z,4.13
2017-10-04T01:59:24.953Z,4.43
2017-10-04T02:01:52.534Z,4.20
2017-10-04T02:04:20.141Z,3.87
2017-10-04T02:06:48.659Z,3.90
2017-10-04T02:09:16.225Z,4.40
2017-10-04T02:11:43.782Z,3.90
2017-10-04T02:14:11.385Z,4.97
2017-10-04T02:16:39.047Z,3.67
2017-10-04T02:19:06.641Z,4.10
2017-10-04T02:21:34.215Z,3.80
2017-10-04T02:24:01.815Z,3.80
2017-10-04T02:26:29.394Z,4.00
2017-10-04T02:28:56.961Z,3.37
2017-10-04T02:31:25.336Z,3.83
2017-10-04T02:33:52.909Z,3.70
2017-10-04T02:36:21.627Z,4.60
2017-10-04T02:38:49.204Z,4.13
2017-10-04T02:41:16.799Z,3.63
2017-10-04T02:43:44.387Z,3.40
2017-10-04T02:46:13.054Z,3.83
2017-10-04T02:48:40.653Z,3.30
2017-10-04T02:51:08.258Z,3.70
2017-10-04T02:53:35.875Z,3.63
2017-10-04T02:56:03.441Z,4.03
2017-10-04T02:58:31.008Z,3.50
2017-10-04T03:00:58.573Z,3.87
2017-10-04T03:03:26.162Z,3.50
2017-10-04T03:05:53.766Z,3.70
2017-10-04T03:08:21.338Z,3.07
2017-10-04T03:10:48.906Z,3.20
2017-10-04T03:13:17.270Z,4.23
2017-10-04T03:15:44.955Z,4.87
2017-10-04T03:18:13.365Z,3.63
2017-10-04T03:20:40.925Z,3.20
2017-10-04T03:23:08.499Z,3.97
2017-10-04T03:25:36.252Z,3.43
2017-10-04T03:28:03.832Z,3.70
2017-10-04T03:30:31.412Z,3.27
2017-10-04T03:32:59.814Z,3.70
2017-10-04T03:35:28.176Z,3.63
2017-10-04T03:37:56.505Z,3.87
2017-10-04T03:40:24.113Z,3.60
2017-10-04T03:42:52.469Z,3.33
2017-10-04T03:45:20.198Z,3.77
2017-10-04T03:47:47.777Z,3.50
2017-10-04T03:50:15.614Z,4.00
2017-10-04T03:52:43.202Z,3.47
2017-10-04T03:55:10.776Z,3.97
2017-10-04T03:57:38.357Z,3.00
2017-10-04T04:00:06.694Z,3.20
2017-10-04T04:02:34.286Z,4.23
2017-10-04T04:05:01.857Z,3.97
2017-10-04T04:07:30.225Z,3.20
2017-10-04T04:09:57.825Z,3.80
2017-10-04T04:12:25.435Z,3.50
2017-10-04T04:14:53.021Z,3.40
2017-10-04T04:17:20.594Z,3.60
2017-10-04T04:19:48.962Z,3.10
2017-10-04T04:22:17.294Z,4.70
2017-10-04T04:24:44.864Z,3.83
2017-10-04T04:27:12.438Z,3.63
2017-10-04T04:29:40.017Z,3.50
2017-10-04T04:32:08.366Z,3.57
2017-10-04T04:34:35.944Z,3.60
2017-10-04T04:37:03.538Z,4.00
2017-10-04T04:39:31.148Z,3.73
2017-10-04T04:41:58.726Z,3.77
2017-10-04T04:44:26.282Z,3.70
2017-10-04T04:46:53.877Z,4.03
2017-10-04T04:49:22.230Z,3.50
2017-10-04T04:51:49.814Z,4.23
2017-10-04T04:54:18.158Z,4.30
2017-10-04T04:56:45.745Z,4.27
2017-10-04T04:59:14.101Z,4.57
2017-10-04T05:01:41.678Z,4.77
2017-10-04T05:04:09.458Z,4.27
2017-10-04T05:06:37.791Z,4.90
2017-10-04T05:09:05.349Z,5.07
2017-10-04T05:11:32.933Z,4.73
2017-10-04T05:14:00.522Z,4.57
2017-10-04T05:16:28.886Z,5.10
2017-10-04T05:18:57.235Z,4.63
2017-10-04T05:21:24.821Z,4.23
2017-10-04T05:23:52.417Z,4.90
2017-10-04T05:26:19.994Z,4.80
2017-10-04T05:28:47.572Z,5.00
2017-10-04T05:31:15.150Z,4.50
2017-10-04T05:33:42.754Z,4.67
2017-10-04T05:36:10.326Z,5.03
2017-10-04T05:38:37.950Z,5.77
2017-10-04T05:41:05.565Z,5.43
2017-10-04T05:43:33.140Z,5.43
2017-10-04T05:46:00.739Z,6.50
2017-10-04T05:48:28.318Z,5.83
2017-10-04T05:50:56.664Z,5.30
2017-10-04T05:53:24.238Z,6.23
2017-10-04T05:55:51.830Z,5.90
2017-10-04T05:58:19.398Z,5.73
2017-10-04T06:00:46.959Z,6.10
2017-10-04T06:03:14.554Z,6.50
2017-10-04T06:05:42.134Z,4.73
2017-10-04T06:08:09.722Z,5.67
2017-10-04T06:10:38.075Z,5.40
2017-10-04T06:13:05.708Z,5.73
2017-10-04T06:15:33.270Z,6.37
2017-10-04T06:18:00.840Z,6.10
2017-10-04T06:20:28.435Z,6.37
2017-10-04T06:22:55.986Z,5.60
2017-10-04T06:25:23.592Z,6.17
2017-10-04T06:27:51.152Z,6.43
2017-10-04T06:30:19.027Z,6.13
2017-10-04T06:32:46.594Z,7.10
2017-10-04T06:35:14.178Z,6.03
2017-10-04T06:37:41.743Z,6.17
2017-10-04T06:40:09.434Z,6.37
2017-10-04T06:42:37.778Z,6.00
2017-10-04T06:45:05.363Z,6.13
2017-10-04T06:47:33.711Z,6.03
2017-10-04T06:50:01.310Z,6.70
2017-10-04T06:52:29.753Z,6.70
2017-10-04T06:54:57.356Z,6.33
2017-10-04T06:57:25.685Z,6.00
2017-10-04T06:59:53.354Z,6.60
2017-10-04T07:02:21.813Z,5.93
2017-10-04T07:04:49.394Z,6.40
2017-10-04T07:07:16.948Z,5.77
2017-10-04T07:09:44.526Z,6.10
2017-10-04T07:12:12.121Z,6.70
2017-10-04T07:14:40.454Z,6.23
2017-10-04T07:17:08.049Z,6.10
2017-10-04T07:19:35.656Z,6.10
2017-10-04T07:22:03.251Z,5.87
2017-10-04T07:24:30.830Z,7.83
2017-10-04T07:26:58.401Z,5.87
2017-10-04T07:29:26.786Z,5.97
2017-10-04T07:31:55.108Z,6.50
2017-10-04T07:34:22.761Z,6.00
2017-10-04T07:36:50.321Z,6.07
2017-10-04T07:39:17.909Z,6.67
2017-10-04T07:41:45.471Z,5.67
2017-10-04T07:44:13.099Z,6.50
2017-10-04T07:46:40.650Z,6.30
2017-10-04T07:49:08.224Z,6.93
2017-10-04T07:51:35.815Z,6.27
2017-10-04T07:54:03.584Z,6.27
2017-10-04T07:56:31.161Z,5.97
2017-10-04T07:58:58.739Z,6.63
2017-10-04T08:01:27.102Z,5.70
2017-10-04T08:03:54.678Z,6.20
2017-10-04T08:06:23.033Z,6.10
2017-10-04T08:08:50.601Z,5.53
2017-10-04T08:11:18.193Z,6.03
2017-10-04T08:13:46.525Z,5.83
2017-10-04T08:16:14.157Z,6.97
2017-10-04T08:18:41.990Z,5.50
2017-10-04T08:21:10.312Z,5.63
2017-10-04T08:23:37.906Z,6.17
2017-10-04T08:26:05.486Z,6.83
2017-10-04T08:28:33.098Z,4.87
2017-10-04T08:31:00.666Z,6.67
2017-10-04T08:33:28.276Z,5.20
2017-10-04T08:35:57.099Z,5.80
2017-10-04T08:38:24.654Z,7.33
2017-10-04T08:40:52.243Z,6.10
2017-10-04T08:43:19.830Z,4.83
2017-10-04T08:45:47.409Z,5.73
2017-10-04T08:48:27.503Z,5.90
2017-10-04T08:50:55.082Z,5.50
2017-10-04T08:53:22.673Z,5.30
2017-10-04T08:55:50.284Z,5.67
2017-10-04T08:58:17.853Z,5.10
2017-10-04T09:00:45.431Z,5.00
2017-10-04T09:03:13.017Z,5.90
2017-10-04T09:05:44.486Z,5.00
2017-10-04T09:08:12.804Z,5.70
2017-10-04T09:10:40.401Z,4.93
2017-10-04T09:13:07.972Z,5.07
2017-10-04T09:15:35.539Z,5.17
2017-10-04T09:18:03.879Z,5.10
2017-10-04T09:20:31.450Z,5.27
2017-10-04T09:22:59.014Z,4.70
2017-10-04T09:25:26.602Z,4.80
2017-10-04T09:27:54.170Z,4.20
2017-10-04T09:30:22.541Z,4.40
2017-10-04T09:32:51.165Z,4.83
2017-10-04T09:35:18.783Z,4.70
2017-10-04T09:37:47.149Z,5.13
2017-10-04T09:40:14.761Z,4.07
2017-10-04T09:42:42.314Z,4.87
2017-10-04T09:45:10.669Z,4.27
2017-10-04T09:47:39.009Z,4.93
2017-10-04T09:50:06.600Z,3.33
2017-10-04T09:52:34.174Z,4.30
2017-10-04T09:55:02.529Z,4.20
2017-10-04T09:57:30.117Z,4.37
2017-10-04T09:59:58.466Z,3.90
2017-10-04T10:02:26.126Z,3.97
2017-10-04T10:04:53.709Z,3.50
2017-10-04T10:07:22.039Z,4.10
2017-10-04T10:09:49.830Z,3.43
2017-10-04T10:12:17.569Z,4.03
2017-10-04T10:14:45.170Z,4.10
2017-10-04T10:17:12.749Z,3.80
2017-10-04T10:19:41.078Z,3.90
2017-10-04T10:22:08.689Z,3.33
2017-10-04T10:24:37.026Z,3.03
2017-10-04T10:27:04.612Z,4.50
2017-10-04T10:29:32.230Z,3.20
2017-10-04T10:31:59.848Z,3.77
2017-10-04T10:34:27.407Z,4.00
2017-10-04T10:36:55.751Z,4.03
2017-10-04T10:39:23.337Z,4.67
2017-10-04T10:41:50.907Z,3.40
2017-10-04T10:44:18.496Z,4.60
2017-10-04T10:46:46.071Z,3.90
2017-10-04T10:49:13.650Z,3.80
2017-10-04T10:51:41.246Z,3.50
2017-10-04T10:54:08.819Z,4.60
2017-10-04T10:56:36.414Z,4.07
2017-10-04T10:59:03.988Z,4.20
2017-10-04T11:01:31.551Z,4.23
2017-10-04T11:03:59.119Z,3.80
2017-10-04T11:06:26.696Z,5.93
2017-10-04T11:08:54.252Z,5.00
2017-10-04T11:11:21.864Z,3.93
2017-10-04T11:13:49.542Z,3.93
2017-10-04T11:16:17.143Z,4.07
2017-10-04T11:18:44.970Z,3.60
2017-10-04T11:21:12.528Z,4.10
2017-10-04T11:23:40.148Z,3.67
2017-10-04T11:26:07.810Z,4.10
2017-10-04T11:28:35.393Z,4.80
2017-10-04T11:31:03.752Z,4.33
2017-10-04T11:33:32.113Z,3.83
2017-10-04T11:35:59.781Z,4.30
2017-10-04T11:38:27.338Z,4.47
2017-10-04T11:40:54.936Z,4.90
2017-10-04T11:43:23.295Z,4.33
2017-10-04T11:45:51.682Z,3.63
2017-10-04T11:48:19.601Z,3.80
2017-10-04T11:50:47.222Z,4.00
2017-10-04T11:53:15.727Z,4.17
2017-10-04T11:55:43.291Z,4.70
2017-10-04T11:58:10.882Z,4.57
2017-10-04T12:00:38.482Z,4.37
2017-10-04T12:03:06.814Z,4.43
2017-10-04T12:05:34.387Z,5.90
2017-10-04T12:08:01.985Z,4.37
2017-10-04T12:10:30.565Z,4.60
2017-10-04T12:12:58.922Z,4.70
2017-10-04T12:15:26.489Z,4.60
2017-10-04T12:17:54.302Z,4.20
2017-10-04T12:20:21.878Z,4.13
2017-10-04T12:22:49.674Z,4.27
2017-10-04T12:25:17.847Z,4.90
2017-10-04T12:27:45.426Z,4.77
2017-10-04T12:30:13.017Z,5.10
2017-10-04T12:32:41.201Z,5.13
2017-10-04T12:35:09.597Z,4.30
2017-10-04T12:37:37.209Z,5.27
2017-10-04T12:40:04.750Z,4.83
2017-10-04T12:42:32.320Z,4.97
2017-10-04T12:45:00.135Z,4.50
2017-10-04T12:47:27.750Z,3.70
2017-10-04T12:49:55.323Z,4.20
2017-10-04T12:52:22.916Z,4.17
2017-10-04T12:54:50.497Z,4.70
2017-10-04T12:57:18.063Z,4.80
2017-10-04T12:59:45.679Z,5.67
2017-10-04T13:02:13.293Z,4.60
2017-10-04T13:04:40.846Z,4.20
2017-10-04T13:07:08.429Z,4.53
2017-10-04T13:09:36.017Z,4.60
2017-10-04T13:12:04.363Z,3.77
2017-10-04T13:14:32.101Z,5.00
2017-10-04T13:16:59.664Z,4.53
2017-10-04T13:19:27.274Z,5.10
2017-10-04T13:21:54.859Z,5.17
2017-10-04T13:24:22.438Z,4.37
2017-10-04T13:26:50.095Z,4.40
2017-10-04T13:29:17.665Z,4.87
2017-10-04T13:31:45.246Z,5.20
2017-10-04T13:34:12.814Z,4.50
2017-10-04T13:36:41.186Z,4.70
2017-10-04T13:39:08.770Z,5.23
2017-10-04T13:41:36.338Z,5.70
2017-10-04T13:44:03.937Z,5.90
2017-10-04T13:46:31.490Z,5.60
2017-10-04T13:48:59.474Z,5.00
2017-10-04T13:51:27.100Z,5.10
2017-10-04T13:53:54.722Z,5.00
2017-10-04T13:56:23.153Z,5.17
2017-10-04T13:58:51.554Z,5.00
2017-10-04T14:01:19.155Z,5.10
2017-10-04T14:03:46.743Z,5.10
2017-10-04T14:06:14.431Z,5.20
2017-10-04T14:08:42.028Z,4.03
2017-10-04T14:11:09.601Z,5.13
2017-10-04T14:13:37.214Z,4.80
2017-10-04T14:16:04.806Z,5.20
2017-10-04T14:18:32.414Z,5.13
2017-10-04T14:20:59.978Z,4.50
2017-10-04T14:23:28.350Z,4.47
2017-10-04T14:25:55.954Z,5.20
2017-10-04T14:28:23.560Z,4.30
2017-10-04T14:30:51.156Z,5.73
2017-10-04T14:33:18.795Z,6.10
2017-10-04T14:35:46.395Z,5.23
2017-10-04T14:38:13.991Z,5.00
2017-10-04T14:40:41.563Z,5.10
2017-10-04T14:43:09.168Z,4.60
2017-10-04T14:45:36.763Z,4.60
2017-10-04T14:48:04.379Z,5.37
2017-10-04T14:50:32.735Z,4.00
2017-10-04T14:53:00.315Z,3.90
2017-10-04T14:55:28.694Z,4.37
2017-10-04T14:57:57.238Z,4.13
2017-10-04T15:00:24.856Z,3.80
2017-10-04T15:02:52.437Z,4.00
2017-10-04T15:05:20.005Z,3.67
2017-10-04T15:07:47.617Z,3.73
2017-10-04T15:10:15.990Z,3.90
2017-10-04T15:12:43.618Z,3.80
2017-10-04T15:15:11.195Z,3.20
2017-10-04T15:17:38.863Z,3.53
2017-10-04T15:20:06.436Z,3.53
2017-10-04T15:22:34.035Z,3.20
2017-10-04T15:25:01.698Z,4.00
2017-10-04T15:27:29.309Z,4.07
2017-10-04T15:29:56.879Z,4.00
2017-10-04T15:32:24.476Z,3.27
2017-10-04T15:34:52.848Z,3.80
2017-10-04T15:37:21.191Z,3.47
2017-10-04T15:39:48.778Z,3.80
2017-10-04T15:42:17.509Z,3.80
2017-10-04T15:44:45.081Z,3.70
2017-10-04T15:47:12.677Z,4.43
2017-10-04T15:49:40.297Z,3.70
2017-10-04T15:52:07.878Z,3.83
2017-10-04T15:54:35.667Z,3.90
2017-10-04T15:57:03.267Z,3.90
2017-10-04T15:59:30.874Z,4.10
2017-10-04T16:01:58.450Z,3.53
2017-10-04T16:04:26.813Z,3.77
2017-10-04T16:06:54.840Z,3.73
2017-10-04T16:09:22.939Z,4.07
2017-10-04T16:11:50.528Z,3.57
2017-10-04T16:14:18.132Z,3.50
2017-10-04T16:16:45.748Z,3.60
2017-10-04T16:19:13.318Z,3.43
2017-10-04T16:21:41.666Z,2.90
2017-10-04T16:24:09.294Z,3.77
2017-10-04T16:26:37.276Z,3.13
2017-10-04T16:29:04.859Z,3.10
2017-10-04T16:31:32.446Z,3.20
2017-10-04T16:34:00.270Z,3.13
2017-10-04T16:36:28.285Z,2.70
2017-10-04T16:51:55.903Z,3.20
2017-10-04T16:54:23.546Z,2.73
2017-10-04T16:56:51.159Z,3.60
2017-10-04T16:59:18.731Z,3.17
2017-10-04T17:01:47.089Z,3.20
2017-10-04T17:04:14.695Z,3.57
2017-10-04T17:06:43.074Z,3.43
2017-10-04T17:09:10.698Z,3.60
2017-10-04T17:11:38.318Z,3.17
2017-10-04T17:14:06.033Z,3.70
2017-10-04T17:16:33.602Z,4.37
2017-10-04T17:19:01.964Z,3.13
2017-10-04T17:21:29.560Z,3.20
2017-10-04T17:23:57.172Z,3.80
2017-10-04T17:26:25.010Z,3.40
2017-10-04T17:28:52.797Z,3.93
2017-10-04T17:31:20.385Z,4.13
2017-10-04T17:33:48.010Z,4.00
2017-10-04T17:36:15.631Z,3.60
2017-10-04T17:38:43.989Z,3.97
2017-10-04T17:41:11.596Z,4.03
2017-10-04T17:43:39.211Z,3.90
2017-10-04T17:46:07.090Z,4.30
2017-10-04T17:48:34.658Z,4.30
2017-10-04T17:51:03.048Z,4.80
2017-10-04T17:53:31.430Z,4.00
2017-10-04T17:55:59.022Z,4.67
2017-10-04T17:58:26.629Z,3.90
2017-10-04T18:00:54.210Z,4.90
2017-10-04T18:03:22.574Z,4.70
2017-10-04T18:05:50.932Z,4.30
2017-10-04T18:08:18.758Z,4.43
2017-10-04T18:10:46.397Z,4.27
2017-10-04T18:13:14.847Z,4.23
2017-10-04T18:15:42.431Z,4.87
2017-10-04T18:18:10.821Z,5.10
2017-10-04T18:20:39.183Z,4.27
2017-10-04T18:23:07.531Z,5.07
2017-10-04T18:25:35.147Z,4.67
2017-10-04T18:28:02.724Z,4.90
2017-10-04T18:30:30.508Z,4.90
2017-10-04T18:32:58.151Z,4.17
2017-10-04T18:35:25.841Z,5.03
2017-10-04T18:37:53.450Z,4.93
2017-10-04T18:40:22.002Z,5.20
2017-10-04T18:42:50.442Z,5.23
2017-10-04T18:45:18.020Z,5.47
2017-10-04T18:47:45.688Z,4.70
2017-10-04T18:50:13.283Z,4.90
2017-10-04T18:52:40.892Z,5.00
2017-10-04T18:55:08.526Z,4.37
2017-10-04T18:57:36.914Z,4.90
2017-10-04T19:00:04.743Z,4.60
2017-10-04T19:02:32.326Z,5.03
2017-10-04T19:05:00.687Z,5.00
2017-10-04T19:07:28.469Z,5.00
2017-10-04T19:09:56.064Z,4.70
2017-10-04T19:12:23.687Z,5.20
2017-10-04T19:14:51.298Z,4.90
2017-10-04T19:17:19.532Z,4.93
2017-10-04T19:19:47.946Z,4.40
2017-10-04T19:22:15.565Z,5.23
2017-10-04T19:24:43.147Z,5.30
2017-10-04T19:27:11.699Z,5.47
2017-10-04T19:29:39.308Z,4.70
2017-10-04T19:32:06.983Z,5.10
2017-10-04T19:34:34.609Z,4.87
2017-10-04T19:37:03.193Z,4.73
2017-10-04T19:39:31.570Z,4.60
2017-10-04T19:41:59.926Z,4.73
2017-10-04T19:44:27.571Z,5.10
2017-10-04T19:46:55.133Z,4.70
2017-10-04T19:49:22.740Z,4.43
2017-10-04T19:51:51.127Z,4.40
2017-10-04T19:54:18.726Z,5.30
2017-10-04T19:56:46.576Z,6.00
2017-10-04T19:59:14.155Z,5.77
2017-10-04T20:01:41.974Z,5.53
2017-10-04T20:04:10.589Z,4.93
2017-10-04T20:06:38.187Z,4.90
2017-10-04T20:09:05.834Z,4.60
2017-10-04T20:11:33.445Z,4.60
2017-10-04T20:14:02.033Z,4.90
2017-10-04T20:16:30.382Z,4.40
2017-10-04T20:18:58.002Z,4.60
2017-10-04T20:21:25.755Z,5.10
2017-10-04T20:23:53.375Z,5.60
2017-10-04T20:26:21.876Z,4.73
2017-10-04T20:28:49.470Z,6.13
2017-10-04T20:31:17.069Z,4.77
2017-10-04T20:33:44.722Z,5.30
2017-10-04T20:36:12.654Z,4.40
2017-10-04T20:38:40.228Z,4.63
2017-10-04T20:41:07.848Z,5.47
2017-10-04T20:43:35.457Z,5.00
2017-10-04T20:46:03.083Z,5.30
2017-10-04T20:48:31.478Z,5.20
2017-10-04T20:50:59.798Z,5.30
2017-10-04T20:53:27.425Z,4.70
2017-10-04T20:55:55.027Z,4.60
2017-10-04T20:58:22.651Z,4.63
2017-10-04T21:00:50.237Z,4.17
2017-10-04T21:03:17.829Z,4.60
2017-10-04T21:05:45.417Z,4.17
2017-10-04T21:08:13.005Z,4.57
2017-10-04T21:10:40.618Z,3.97
2017-10-04T21:13:08.222Z,4.60
2017-10-04T21:15:35.990Z,3.90
2017-10-04T21:18:03.584Z,3.90
2017-10-04T21:20:31.206Z,4.50
2017-10-04T21:22:58.809Z,3.87
2017-10-04T21:25:26.403Z,4.43
2017-10-04T21:27:54.746Z,3.93
2017-10-04T21:30:22.345Z,4.10
2017-10-04T21:32:50.683Z,4.50
2017-10-04T21:35:18.273Z,5.30
2017-10-04T21:37:46.067Z,4.33
2017-10-04T21:40:14.389Z,4.33
2017-10-04T21:42:42.014Z,3.90
2017-10-04T21:45:09.597Z,3.70
2017-10-04T21:47:37.186Z,4.23
2017-10-04T21:50:04.767Z,4.40
2017-10-04T21:52:33.106Z,3.97
2017-10-04T21:55:00.686Z,4.20
2017-10-04T21:57:28.365Z,5.00
2017-10-04T21:59:56.703Z,4.27
2017-10-04T22:02:24.277Z,4.43
2017-10-04T22:04:51.862Z,4.17
2017-10-04T22:07:19.474Z,5.17
2017-10-04T22:09:47.058Z,4.90
2017-10-04T22:12:14.634Z,4.50
2017-10-04T22:14:42.206Z,3.67
2017-10-04T22:17:09.801Z,3.87
2017-10-04T22:19:37.362Z,3.80
2017-10-04T22:22:05.010Z,3.97
2017-10-04T22:24:32.598Z,4.27
2017-10-04T22:27:00.167Z,3.70
2017-10-04T22:29:28.231Z,4.53
2017-10-04T22:31:55.830Z,4.30
2017-10-04T22:34:23.410Z,4.20
2017-10-04T22:36:50.979Z,4.20
2017-10-04T22:39:19.319Z,4.70
2017-10-04T22:41:47.079Z,3.50
2017-10-04T22:44:14.690Z,4.17
2017-10-04T22:46:43.012Z,3.87
2017-10-04T22:49:10.608Z,4.30
2017-10-04T22:51:38.160Z,4.17
2017-10-04T22:54:05.943Z,3.73
2017-10-04T22:56:33.842Z,4.13
2017-10-04T22:59:01.390Z,4.23
2017-10-04T23:01:28.973Z,4.73
2017-10-04T23:03:56.558Z,4.10
2017-10-04T23:06:24.110Z,3.67
2017-10-04T23:08:51.754Z,4.07
2017-10-04T23:11:19.829Z,4.43
2017-10-04T23:13:47.445Z,4.30
2017-10-04T23:16:15.002Z,4.17
2017-10-04T23:18:42.583Z,4.50
2017-10-04T23:21:10.930Z,4.70
2017-10-04T23:23:38.506Z,3.67
2017-10-04T23:26:06.130Z,4.40
2017-10-04T23:28:35.523Z,3.90
2017-10-04T23:31:03.105Z,3.90
2017-10-04T23:33:30.719Z,3.97
2017-10-04T23:35:59.045Z,3.97
2017-10-04T23:38:26.630Z,3.90
2017-10-04T23:40:54.205Z,4.10
2017-10-04T23:43:22.570Z,4.07
2017-10-04T23:45:50.499Z,4.20
2017-10-04T23:48:18.363Z,4.13
2017-10-04T23:50:45.954Z,4.23
2017-10-04T23:53:13.522Z,4.33
2017-10-04T23:55:41.142Z,4.97
2017-10-04T23:58:08.705Z,4.27
